Time;durP1;ratioP1;P1;durP2;ratioP2;P2;SDS_P1;SDS_P2;PMS_P1;PMS_P2;Temp;Humidity;BMP_temperature;BMP_pressure;BME280_temperature;BME280_humidity;BME280_pressure;Samples;Min_cycle;Max_cycle;Signal;HPM_P1;HPM_P2
2023/06/15 00:00:44;;;;;;;1.63;1.52;;;;;;;15.00;100.00;90853.09;5072700;28;20040;-73
2023/06/15 00:03:10;;;;;;;1.27;1.25;;;;;;;14.96;100.00;90844.16;5071274;28;20025;-72
2023/06/15 00:05:36;;;;;;;3.33;2.03;;;;;;;14.94;100.00;90843.72;5072576;28;20044;-71
2023/06/15 00:08:01;;;;;;;1.40;1.33;;;;;;;14.86;100.00;90837.38;5071515;28;20021;-71
2023/06/15 00:10:27;;;;;;;2.05;1.73;;;;;;;14.87;100.00;90835.47;5072528;28;20064;-71
2023/06/15 00:12:52;;;;;;;1.42;1.35;;;;;;;14.97;100.00;90843.03;5072349;28;20032;-72
2023/06/15 00:15:17;;;;;;;2.08;1.95;;;;;;;14.94;100.00;90831.09;5072388;28;20086;-72
2023/06/15 00:17:43;;;;;;;1.42;1.33;;;;;;;14.89;100.00;90836.69;5072241;28;20028;-72
2023/06/15 00:20:12;;;;;;;2.83;2.10;;;;;;;14.92;100.00;90837.91;5072258;28;20036;-71
2023/06/15 00:22:40;;;;;;;1.50;1.45;;;;;;;14.95;100.00;90839.91;5071464;28;20067;-71
2023/06/15 00:25:06;;;;;;;1.52;1.42;;;;;;;14.96;100.00;90836.13;5072246;28;20021;-72
2023/06/15 00:27:35;;;;;;;1.65;1.55;;;;;;;15.04;100.00;90837.13;5072212;28;20032;-72
2023/06/15 00:30:05;;;;;;;1.75;1.65;;;;;;;15.04;100.00;90840.59;5072360;28;20028;-72
2023/06/15 00:32:31;;;;;;;1.55;1.45;;;;;;;15.05;100.00;90831.44;5072039;28;20107;-72
2023/06/15 00:34:56;;;;;;;1.75;1.65;;;;;;;15.03;100.00;90847.06;5072018;28;20150;-72
2023/06/15 00:37:22;;;;;;;1.45;1.35;;;;;;;14.99;100.00;90835.47;5071733;28;20131;-72
2023/06/15 00:39:47;;;;;;;2.00;1.88;;;;;;;15.05;100.00;90842.16;5071896;28;20036;-72
2023/06/15 00:42:13;;;;;;;2.30;2.15;;;;;;;14.92;100.00;90836.00;5071947;28;20115;-72
2023/06/15 00:44:38;;;;;;;1.90;1.80;;;;;;;14.93;100.00;90826.06;5071819;28;20036;-71
2023/06/15 00:47:04;;;;;;;1.15;1.15;;;;;;;14.84;100.00;90834.25;5071816;28;20149;-70
2023/06/15 00:49:32;;;;;;;0.98;0.98;;;;;;;14.81;100.00;90842.16;5071800;28;20028;-70
2023/06/15 00:51:58;;;;;;;1.73;1.63;;;;;;;14.83;100.00;90829.19;5071679;28;20035;-71
2023/06/15 00:54:24;;;;;;;1.48;1.30;;;;;;;14.86;100.00;90831.22;5071642;28;20033;-71
2023/06/15 00:56:51;;;;;;;1.45;1.35;;;;;;;14.95;100.00;90826.53;5071701;28;20035;-71
2023/06/15 00:59:17;;;;;;;1.33;1.25;;;;;;;14.98;100.00;90826.63;5071632;28;20142;-71
2023/06/15 01:01:44;;;;;;;0.90;0.90;;;;;;;14.91;100.00;90822.97;5071458;28;20101;-70
2023/06/15 01:04:10;;;;;;;3.50;1.23;;;;;;;14.92;100.00;90824.53;5071422;28;20025;-71
2023/06/15 01:06:41;;;;;;;1.88;1.75;;;;;;;14.89;100.00;90822.53;5071536;28;20028;-70
2023/06/15 01:09:09;;;;;;;1.70;1.63;;;;;;;14.87;100.00;90828.22;5071509;28;20032;-71
2023/06/15 01:11:35;;;;;;;1.38;1.35;;;;;;;14.80;100.00;90829.88;5071440;28;20497;-71
2023/06/15 01:14:07;;;;;;;1.02;0.95;;;;;;;14.76;100.00;90824.44;5071270;28;20029;-71
2023/06/15 01:16:39;;;;;;;1.55;1.45;;;;;;;14.72;100.00;90820.88;5071308;28;20044;-70
2023/06/15 01:19:09;;;;;;;1.58;1.48;;;;;;;14.63;100.00;90817.50;5071413;28;20032;-70
2023/06/15 01:21:36;;;;;;;2.15;1.95;;;;;;;14.57;100.00;90808.16;5071308;28;20375;-70
2023/06/15 01:24:31;;;;;;;2.53;1.52;;;;;;;14.53;100.00;90810.72;5071253;28;20032;-71
2023/06/15 01:26:58;;;;;;;3.08;2.88;;;;;;;14.44;100.00;90810.03;5071295;28;20080;-70
2023/06/15 01:29:26;;;;;;;1.35;1.25;;;;;;;14.36;100.00;90801.00;5071272;28;20032;-69
2023/06/15 01:31:52;;;;;;;1.48;1.48;;;;;;;14.32;100.00;90801.97;5071013;28;20503;-71
2023/06/15 01:34:17;;;;;;;4.15;2.85;;;;;;;14.37;100.00;90809.81;5071015;28;20024;-71
2023/06/15 01:36:43;;;;;;;1.95;1.63;;;;;;;14.41;100.00;90799.19;5070868;28;20497;-71
2023/06/15 01:39:09;;;;;;;1.52;1.42;;;;;;;14.44;100.00;90799.34;5071119;28;20482;-71
2023/06/15 01:41:35;;;;;;;2.00;1.60;;;;;;;14.44;100.00;90802.00;5071135;28;20067;-71
2023/06/15 01:44:02;;;;;;;2.15;1.90;;;;;;;14.42;100.00;90801.53;5071034;28;20059;-71
2023/06/15 01:46:28;;;;;;;1.13;1.13;;;;;;;14.36;100.00;90803.66;5071072;28;20036;-71
2023/06/15 01:48:55;;;;;;;1.13;1.05;;;;;;;14.33;100.00;90809.66;5071015;28;20505;-71
2023/06/15 01:51:22;;;;;;;1.33;0.95;;;;;;;14.29;100.00;90803.44;5071289;28;20028;-71
2023/06/15 01:53:47;;;;;;;4.20;2.15;;;;;;;14.21;100.00;90804.31;5070952;28;20422;-71
2023/06/15 01:56:14;;;;;;;1.20;1.20;;;;;;;14.16;100.00;90804.53;5071025;28;20037;-71
2023/06/15 01:58:39;;;;;;;0.85;0.85;;;;;;;14.07;100.00;90795.84;5070784;28;20398;-71
2023/06/15 02:01:05;;;;;;;0.90;0.90;;;;;;;14.02;100.00;90793.34;5070959;28;20037;-71
2023/06/15 02:03:31;;;;;;;1.63;1.52;;;;;;;13.99;100.00;90794.81;5070814;28;20036;-72
2023/06/15 02:05:57;;;;;;;1.10;1.10;;;;;;;14.13;100.00;90793.72;5070887;28;20024;-70
2023/06/15 02:08:22;;;;;;;1.17;1.17;;;;;;;14.30;100.00;90798.84;5070866;28;20023;-70
2023/06/15 02:10:47;;;;;;;1.88;1.77;;;;;;;14.28;100.00;90804.53;5070770;28;20417;-70
2023/06/15 02:13:13;;;;;;;1.67;1.58;;;;;;;14.24;100.00;90797.53;5070723;28;20111;-70
2023/06/15 02:15:38;;;;;;;1.15;1.15;;;;;;;14.43;100.00;90800.44;5070807;28;20040;-70
2023/06/15 02:18:11;;;;;;;1.45;1.45;;;;;;;14.54;100.00;90804.25;5070702;28;20478;-72
2023/06/15 02:20:39;;;;;;;1.42;1.33;;;;;;;14.67;100.00;90795.09;5070839;28;20031;-71
2023/06/15 02:23:04;;;;;;;1.05;1.05;;;;;;;14.68;100.00;90785.97;5067946;28;22063;-71
2023/06/15 02:25:30;;;;;;;1.88;1.65;;;;;;;14.72;100.00;90787.94;5050695;28;20532;-71
2023/06/15 02:27:56;;;;;;;1.48;1.38;;;;;;;14.78;100.00;90784.69;5050712;28;20024;-70
2023/06/15 02:30:25;;;;;;;1.65;1.55;;;;;;;14.80;100.00;90789.72;5050680;28;20032;-70
2023/06/15 02:32:52;;;;;;;1.00;1.00;;;;;;;14.70;100.00;90795.53;5050526;28;20057;-72
2023/06/15 02:35:18;;;;;;;0.98;0.98;;;;;;;14.50;100.00;90789.97;5050582;28;20021;-71
2023/06/15 02:37:43;;;;;;;1.38;1.38;;;;;;;14.55;100.00;90787.06;5050335;28;20059;-72
2023/06/15 02:40:10;;;;;;;4.05;1.10;;;;;;;14.63;100.00;90790.75;5050546;28;20145;-72
2023/06/15 02:42:37;;;;;;;1.05;1.05;;;;;;;14.76;100.00;90796.88;5050345;28;20103;-72
2023/06/15 02:45:03;;;;;;;2.00;1.88;;;;;;;14.91;100.00;90796.19;5052239;28;20029;-73
2023/06/15 02:47:29;;;;;;;0.93;0.93;;;;;;;15.00;100.00;90793.38;5054115;28;20028;-72
2023/06/15 02:49:58;;;;;;;1.40;1.30;;;;;;;15.08;100.00;90805.84;5054082;28;20450;-72
2023/06/15 02:52:24;;;;;;;0.90;0.90;;;;;;;14.92;100.00;90793.16;5053958;28;20025;-71
2023/06/15 02:54:50;;;;;;;2.10;1.98;;;;;;;14.82;100.00;90792.84;5054017;28;20075;-71
2023/06/15 02:57:15;;;;;;;2.17;2.00;;;;;;;14.88;100.00;90796.84;5053826;28;20036;-71
2023/06/15 02:59:40;;;;;;;1.75;1.02;;;;;;;14.93;100.00;90797.41;5053848;28;20029;-71
2023/06/15 03:02:06;;;;;;;2.47;1.80;;;;;;;15.02;100.00;90796.50;5053838;28;20033;-72
2023/06/15 03:04:32;;;;;;;1.85;1.70;;;;;;;14.84;100.00;90802.13;5053804;28;20032;-70
2023/06/15 03:06:59;;;;;;;3.90;1.67;;;;;;;14.83;100.00;90805.91;5053984;28;20108;-70
2023/06/15 03:09:25;;;;;;;1.88;1.77;;;;;;;14.91;100.00;90801.53;5053669;28;20029;-70
2023/06/15 03:11:50;;;;;;;0.98;0.98;;;;;;;14.88;100.00;90794.19;5053663;28;20025;-72
2023/06/15 03:14:19;;;;;;;1.42;1.38;;;;;;;14.98;100.00;90796.38;5053454;28;20438;-72
2023/06/15 03:16:48;;;;;;;2.65;2.45;;;;;;;15.07;100.00;90793.56;5053513;28;20108;-72
2023/06/15 03:19:17;;;;;;;1.85;1.75;;;;;;;15.04;100.00;90797.72;5053562;28;20021;-72
2023/06/15 03:21:42;;;;;;;1.95;1.60;;;;;;;14.99;100.00;90797.97;5053536;28;20102;-72
2023/06/15 03:24:08;;;;;;;2.42;2.22;;;;;;;15.03;100.00;90798.84;5053350;28;20491;-71
2023/06/15 03:26:37;;;;;;;2.20;1.88;;;;;;;15.16;100.00;90799.59;5053414;28;20032;-71
2023/06/15 03:29:03;;;;;;;1.20;1.20;;;;;;;15.13;100.00;90794.91;5053338;28;20031;-72
2023/06/15 03:31:33;;;;;;;1.40;1.30;;;;;;;15.31;100.00;90792.75;5053246;28;20033;-72
2023/06/15 03:33:59;;;;;;;1.77;1.33;;;;;;;15.40;100.00;90796.81;5053215;28;20078;-71
2023/06/15 03:36:29;;;;;;;1.02;1.02;;;;;;;15.52;100.00;90798.69;5053262;28;20041;-71
2023/06/15 03:38:54;;;;;;;1.63;1.52;;;;;;;15.46;100.00;90789.31;5053099;28;20025;-71
2023/06/15 03:41:20;;;;;;;1.60;1.50;;;;;;;15.53;100.00;90800.25;5053103;28;20388;-71
2023/06/15 03:43:45;;;;;;;1.55;1.45;;;;;;;15.68;100.00;90791.50;5052939;28;20029;-71
2023/06/15 03:46:11;;;;;;;3.85;1.98;;;;;;;15.73;100.00;90796.59;5053094;28;20025;-71
2023/06/15 03:48:36;;;;;;;1.45;1.23;;;;;;;15.80;100.00;90801.41;5053012;28;20574;-72
2023/06/15 03:51:01;;;;;;;1.75;1.65;;;;;;;15.90;100.00;90794.75;5052929;28;20029;-71
2023/06/15 03:53:27;;;;;;;2.00;1.65;;;;;;;16.07;100.00;90797.09;5052635;28;20518;-71
2023/06/15 03:55:52;;;;;;;1.75;1.60;;;;;;;15.90;100.00;90792.06;5051978;28;20032;-72
2023/06/15 03:58:18;;;;;;;2.03;1.67;;;;;;;16.00;100.00;90796.94;5052347;28;20033;-72
2023/06/15 04:00:45;;;;;;;1.63;1.52;;;;;;;15.71;100.00;90796.19;5052683;28;20559;-72
2023/06/15 04:03:11;;;;;;;3.33;1.17;;;;;;;15.47;100.00;90801.63;5051931;28;20055;-71
2023/06/15 04:05:36;;;;;;;0.75;0.75;;;;;;;15.32;100.00;90794.31;5052236;28;20068;-72
2023/06/15 04:08:01;;;;;;;2.38;2.17;;;;;;;15.27;100.00;90804.13;5052307;28;20052;-72
2023/06/15 04:10:27;;;;;;;0.88;0.88;;;;;;;15.21;100.00;90794.78;5052266;28;20036;-70
2023/06/15 04:12:53;;;;;;;1.70;1.60;;;;;;;15.34;100.00;90786.69;5052571;28;20036;-71
2023/06/15 04:15:18;;;;;;;2.28;2.08;;;;;;;15.46;100.00;90790.13;5052472;28;20028;-71
2023/06/15 04:17:44;;;;;;;1.33;1.23;;;;;;;15.64;100.00;90795.22;5052368;28;20498;-71
2023/06/15 04:20:10;;;;;;;1.92;1.83;;;;;;;15.75;100.00;90789.00;5052336;28;20559;-71
2023/06/15 04:22:36;;;;;;;1.60;1.50;;;;;;;15.80;100.00;90786.09;5052202;28;20079;-72
2023/06/15 04:25:01;;;;;;;4.20;2.35;;;;;;;16.07;100.00;90791.72;5052238;28;20506;-72
2023/06/15 04:27:27;;;;;;;1.52;1.42;;;;;;;16.30;100.00;90805.34;5052499;28;20058;-72
2023/06/15 04:29:53;;;;;;;4.80;1.58;;;;;;;16.51;100.00;90799.72;5052209;28;20513;-72
2023/06/15 04:32:19;;;;;;;1.02;1.02;;;;;;;16.74;100.00;90788.03;5052013;28;20063;-72
2023/06/15 04:34:45;;;;;;;3.72;1.95;;;;;;;16.85;100.00;90793.66;5052136;28;20509;-72
2023/06/15 04:37:12;;;;;;;2.17;2.03;;;;;;;16.98;100.00;90795.09;5051758;28;20106;-72
2023/06/15 04:39:38;;;;;;;1.77;1.67;;;;;;;17.05;100.00;90787.22;5051918;28;20426;-71
2023/06/15 04:42:04;;;;;;;3.33;1.85;;;;;;;17.25;100.00;90795.28;5051818;28;20035;-72
2023/06/15 04:44:29;;;;;;;2.10;1.98;;;;;;;17.22;100.00;90787.94;5051780;28;20040;-72
2023/06/15 04:46:55;;;;;;;2.63;2.42;;;;;;;17.29;100.00;90796.91;5051791;28;20028;-71
2023/06/15 04:49:21;;;;;;;3.08;2.83;;;;;;;17.34;100.00;90802.00;5051771;28;20029;-71
2023/06/15 04:51:48;;;;;;;3.75;3.45;;;;;;;17.53;100.00;90800.50;5051485;28;20051;-73
2023/06/15 04:54:14;;;;;;;4.93;3.47;;;;;;;17.46;100.00;90801.09;5051613;28;20519;-72
2023/06/15 04:56:39;;;;;;;3.67;2.78;;;;;;;17.15;100.00;90806.59;5049862;28;20103;-70
2023/06/15 04:59:05;;;;;;;3.47;3.10;;;;;;;17.19;100.00;90808.22;5042653;28;20103;-72
2023/06/15 05:01:30;;;;;;;6.53;5.97;;;;;;;17.33;100.00;90813.91;5046728;28;20515;-72
2023/06/15 05:03:56;;;;;;;3.38;3.13;;;;;;;17.36;100.00;90813.22;5045556;28;20052;-73
2023/06/15 05:06:21;;;;;;;6.25;4.95;;;;;;;17.64;100.00;90813.00;5048890;28;20612;-71
2023/06/15 05:08:46;;;;;;;4.97;4.28;;;;;;;17.74;100.00;90821.69;5049761;28;20053;-72
2023/06/15 05:11:12;;;;;;;4.47;4.13;;;;;;;17.60;100.00;90817.53;5045521;28;20099;-71
2023/06/15 05:13:38;;;;;;;2.42;2.25;;;;;;;17.65;100.00;90824.53;5050376;28;20100;-72
2023/06/15 05:16:04;;;;;;;2.75;2.50;;;;;;;17.42;100.00;90821.78;5041354;28;20040;-72
2023/06/15 05:18:30;;;;;;;3.17;2.97;;;;;;;17.35;100.00;90827.00;5040312;28;20021;-71
2023/06/15 05:20:55;;;;;;;2.75;2.50;;;;;;;17.34;100.00;90818.16;5040122;28;20013;-71
2023/06/15 05:23:21;;;;;;;3.20;2.22;;;;;;;17.48;100.00;90827.66;5041213;28;20112;-70
2023/06/15 05:25:47;;;;;;;4.07;3.63;;;;;;;17.55;100.00;90817.06;5040245;28;20561;-78
2023/06/15 05:28:12;;;;;;;3.30;2.63;;;;;;;17.51;100.00;90814.25;5041511;28;20024;-74
2023/06/15 05:30:38;;;;;;;4.55;4.10;;;;;;;17.67;100.00;90820.38;5048498;28;20040;-72
2023/06/15 05:33:04;;;;;;;4.45;3.00;;;;;;;17.67;100.00;90820.38;5046155;28;20063;-69
2023/06/15 05:35:29;;;;;;;3.78;3.47;;;;;;;17.53;100.00;90817.41;5045825;28;20024;-69
2023/06/15 05:37:55;;;;;;;4.25;3.85;;;;;;;17.68;100.00;90818.50;5045550;28;20057;-68
2023/06/15 05:40:20;;;;;;;4.43;4.03;;;;;;;17.85;100.00;90826.16;5045174;28;20621;-68
2023/06/15 05:42:45;;;;;;;3.67;3.15;;;;;;;17.95;100.00;90822.09;5039068;28;20036;-70
2023/06/15 05:45:11;;;;;;;4.00;2.95;;;;;;;17.90;100.00;90825.06;5039769;28;20060;-71
2023/06/15 05:47:36;;;;;;;4.75;1.80;;;;;;;17.71;100.00;90830.47;5035212;28;20030;-68
2023/06/15 05:50:02;;;;;;;5.25;2.67;;;;;;;17.54;100.00;90831.63;5031037;28;20025;-67
2023/06/15 05:52:27;;;;;;;5.68;4.32;;;;;;;17.70;100.00;90826.22;5030904;28;20033;-67
2023/06/15 05:54:53;;;;;;;4.05;3.00;;;;;;;17.73;100.00;90837.06;5031309;28;20096;-67
2023/06/15 05:57:18;;;;;;;4.75;3.58;;;;;;;17.82;100.00;90834.91;5030905;28;20502;-67
2023/06/15 05:59:46;;;;;;;2.72;2.40;;;;;;;17.71;100.00;90835.84;5030958;28;20038;-68
2023/06/15 06:02:12;;;;;;;5.03;3.63;;;;;;;17.80;100.00;90839.09;5030843;28;20025;-65
2023/06/15 06:04:37;;;;;;;5.95;4.28;;;;;;;17.47;100.00;90837.63;5031006;28;20523;-66
2023/06/15 06:07:05;;;;;;;2.92;2.72;;;;;;;17.57;100.00;90839.00;5030788;28;20057;-67
2023/06/15 06:09:31;;;;;;;6.68;4.18;;;;;;;17.69;100.00;90833.50;5041820;28;20025;-66
2023/06/15 06:11:56;;;;;;;2.67;2.47;;;;;;;17.47;100.00;90844.91;5050513;28;20024;-67
2023/06/15 06:14:22;;;;;;;5.05;3.00;;;;;;;17.44;100.00;90829.50;5050575;28;20474;-65
2023/06/15 06:16:47;;;;;;;3.60;3.20;;;;;;;17.50;100.00;90844.22;5050494;28;20036;-64
2023/06/15 06:19:13;;;;;;;5.45;4.22;;;;;;;17.73;100.00;90825.50;5051029;28;20036;-65
2023/06/15 06:21:38;;;;;;;4.55;3.40;;;;;;;17.66;100.00;90837.63;5054329;28;20048;-66
2023/06/15 06:24:04;;;;;;;5.18;3.08;;;;;;;17.71;100.00;90833.94;5054702;28;20037;-66
2023/06/15 06:26:29;;;;;;;4.25;3.85;;;;;;;17.66;100.00;90837.63;5055128;28;20103;-68
2023/06/15 06:28:57;;;;;;;3.03;2.83;;;;;;;17.88;100.00;90830.03;5055055;28;20410;-66
2023/06/15 06:31:22;;;;;;;2.53;2.33;;;;;;;17.94;100.00;90831.28;5055189;28;20033;-66
2023/06/15 06:33:48;;;;;;;4.28;3.25;;;;;;;17.78;100.00;90833.28;5046900;28;20017;-67
2023/06/15 06:36:13;;;;;;;3.55;2.90;;;;;;;18.12;100.00;90834.31;5043078;28;20498;-70
2023/06/15 06:38:39;;;;;;;4.13;2.92;;;;;;;18.48;100.00;90843.84;5048638;28;20024;-68
2023/06/15 06:41:04;;;;;;;7.20;4.43;;;;;;;18.53;100.00;90841.63;5053637;28;20029;-68
2023/06/15 06:43:29;;;;;;;3.45;2.65;;;;;;;18.29;100.00;90843.88;5054709;28;20388;-69
2023/06/15 06:45:55;;;;;;;5.65;3.58;;;;;;;18.64;100.00;90839.16;5054985;28;20025;-69
2023/06/15 06:48:20;;;;;;;4.07;3.70;;;;;;;19.09;100.00;90854.50;5053134;28;20029;-66
2023/06/15 06:50:46;;;;;;;3.65;2.70;;;;;;;18.88;100.00;90851.47;5054572;28;20021;-66
2023/06/15 06:53:12;;;;;;;3.38;2.00;;;;;;;18.98;100.00;90853.56;5054315;28;20033;-66
2023/06/15 06:55:37;;;;;;;3.83;3.28;;;;;;;19.09;100.00;90859.09;5046545;28;20767;-66
2023/06/15 06:58:04;;;;;;;2.78;2.28;;;;;;;18.65;100.00;90848.00;5053896;28;20033;-66
2023/06/15 07:00:29;;;;;;;7.00;5.40;;;;;;;18.22;100.00;90848.00;5053735;28;20495;-67
2023/06/15 07:02:55;;;;;;;2.95;2.70;;;;;;;17.58;100.00;90851.31;5053715;28;20108;-67
2023/06/15 07:05:21;;;;;;;3.47;2.60;;;;;;;17.57;100.00;90845.16;5053502;28;20021;-67
2023/06/15 07:07:47;;;;;;;3.13;2.58;;;;;;;17.91;100.00;90845.47;5053362;28;20391;-67
2023/06/15 07:10:12;;;;;;;4.85;2.38;;;;;;;18.15;100.00;90852.47;5042257;28;20423;-67
2023/06/15 07:12:38;;;;;;;2.80;2.70;;;;;;;18.28;100.00;90856.53;5053435;28;20025;-67
2023/06/15 07:15:06;;;;;;;3.70;3.40;;;;;;;18.43;100.00;90854.91;5054076;28;20032;-68
2023/06/15 07:17:33;;;;;;;2.92;2.30;;;;;;;18.80;100.00;90855.97;5053004;28;20028;-67
2023/06/15 07:19:59;;;;;;;5.15;3.38;;;;;;;18.93;100.00;90853.06;5053966;28;20086;-67
2023/06/15 07:22:24;;;;;;;2.47;2.35;;;;;;;18.97;100.00;90854.69;5054071;28;20096;-67
2023/06/15 07:24:51;;;;;;;1.90;1.80;;;;;;;19.36;100.00;90857.97;5054177;28;20117;-67
2023/06/15 07:27:18;;;;;;;1.88;1.77;;;;;;;19.16;100.00;90856.53;5054004;28;20099;-67
2023/06/15 07:29:43;;;;;;;1.77;1.35;;;;;;;19.35;100.00;90863.75;5049550;28;20071;-67
2023/06/15 07:32:09;;;;;;;2.00;1.88;;;;;;;19.48;100.00;90862.38;5051653;28;20045;-67
2023/06/15 07:34:34;;;;;;;4.95;3.13;;;;;;;19.12;100.00;90866.50;5054532;28;20052;-67
2023/06/15 07:37:00;;;;;;;3.13;2.85;;;;;;;18.93;100.00;90871.94;5053710;28;20085;-67
2023/06/15 07:39:25;;;;;;;2.85;2.60;;;;;;;19.22;100.00;90868.56;5052611;28;20569;-67
2023/06/15 07:41:51;;;;;;;1.88;1.77;;;;;;;19.09;100.00;90880.66;5053827;28;20497;-67
2023/06/15 07:44:16;;;;;;;3.38;3.17;;;;;;;19.47;100.00;90870.84;5053806;28;20024;-67
2023/06/15 07:46:42;;;;;;;2.40;2.25;;;;;;;19.58;100.00;90866.41;5053786;28;20040;-67
2023/06/15 07:49:07;;;;;;;3.53;2.75;;;;;;;19.54;100.00;90876.34;5053697;28;20034;-67
2023/06/15 07:51:36;;;;;;;2.05;1.95;;;;;;;19.32;100.00;90865.25;5053627;28;20033;-65
2023/06/15 07:54:02;;;;;;;3.40;1.90;;;;;;;19.59;100.00;90873.38;5034507;28;20029;-67
2023/06/15 07:56:27;;;;;;;2.90;2.67;;;;;;;19.39;100.00;90865.34;5038123;28;20044;-67
2023/06/15 07:58:53;;;;;;;3.38;3.08;;;;;;;19.34;100.00;90876.44;5043877;28;20061;-67
2023/06/15 08:01:18;;;;;;;6.07;4.38;;;;;;;19.53;100.00;90880.97;5042767;28;20025;-67
2023/06/15 08:03:44;;;;;;;2.95;2.20;;;;;;;19.50;100.00;90872.81;5052657;28;20475;-66
2023/06/15 08:06:10;;;;;;;1.88;1.42;;;;;;;19.42;100.00;90878.13;5052872;28;20110;-67
2023/06/15 08:08:36;;;;;;;2.53;1.70;;;;;;;19.21;100.00;90877.00;5053123;28;20083;-67
2023/06/15 08:11:01;;;;;;;2.45;2.22;;;;;;;19.24;100.00;90874.34;5053463;28;20017;-67
2023/06/15 08:13:27;;;;;;;2.75;2.13;;;;;;;19.23;100.00;90874.72;5053264;28;20419;-67
2023/06/15 08:15:52;;;;;;;10.80;2.47;;;;;;;19.21;100.00;90875.09;5053160;28;20384;-66
2023/06/15 08:18:18;;;;;;;3.40;2.85;;;;;;;19.10;100.00;90883.03;5053350;28;20059;-67
2023/06/15 08:20:43;;;;;;;2.88;2.67;;;;;;;18.82;100.00;90877.94;5052997;28;20409;-67
2023/06/15 08:23:08;;;;;;;1.48;1.38;;;;;;;19.45;100.00;90874.69;5052881;28;20064;-66
2023/06/15 08:25:34;;;;;;;3.80;2.63;;;;;;;19.78;100.00;90875.94;5052362;28;20028;-67
2023/06/15 08:28:01;;;;;;;2.15;1.95;;;;;;;19.97;100.00;90880.41;5052910;28;20025;-67
2023/06/15 08:30:26;;;;;;;3.55;2.92;;;;;;;20.01;100.00;90883.94;5053050;28;20048;-67
2023/06/15 08:32:52;;;;;;;2.67;2.47;;;;;;;19.83;100.00;90889.13;5052751;28;20063;-67
2023/06/15 08:35:17;;;;;;;3.40;2.08;;;;;;;19.20;100.00;90889.72;5052083;28;20472;-67
2023/06/15 08:37:43;;;;;;;2.80;2.60;;;;;;;19.39;100.00;90884.22;5052595;28;20132;-67
2023/06/15 08:40:09;;;;;;;3.22;2.97;;;;;;;19.73;100.00;90889.75;5052369;28;20028;-67
2023/06/15 08:42:34;;;;;;;2.38;2.10;;;;;;;20.25;100.00;90882.69;5051918;28;20029;-67
2023/06/15 08:45:04;;;;;;;7.78;3.25;;;;;;;20.34;100.00;90880.47;5051911;28;20028;-67
2023/06/15 08:47:32;;;;;;;2.47;2.28;;;;;;;20.13;100.00;90878.31;5048720;28;20522;-67
2023/06/15 08:49:59;;;;;;;4.70;2.47;;;;;;;19.94;100.00;90884.63;5051728;28;20060;-67
2023/06/15 08:52:26;;;;;;;3.63;2.97;;;;;;;20.14;100.00;90893.38;5041825;28;20029;-66
2023/06/15 08:54:52;;;;;;;3.22;2.90;;;;;;;19.88;100.00;90891.50;5040100;28;20028;-66
2023/06/15 08:57:18;;;;;;;2.75;2.55;;;;;;;19.88;100.00;90894.22;5032298;28;20029;-66
2023/06/15 08:59:43;;;;;;;5.57;3.58;;;;;;;19.94;100.00;90887.34;5042408;28;20017;-64
2023/06/15 09:02:17;;;;;;;7.63;2.67;;;;;;;19.96;100.00;90882.34;5040576;28;20029;-73
2023/06/15 09:04:42;;;;;;;3.08;1.65;;;;;;;19.91;100.00;90879.97;5051378;28;20039;-70
2023/06/15 09:07:09;;;;;;;2.65;2.45;;;;;;;19.72;100.00;90893.56;5047108;28;20119;-67
2023/06/15 09:09:35;;;;;;;2.85;2.70;;;;;;;19.87;100.00;90887.22;5042866;28;20028;-68
2023/06/15 09:12:01;;;;;;;3.45;2.00;;;;;;;20.03;100.00;90889.75;5047401;28;20025;-70
2023/06/15 09:14:26;;;;;;;3.53;2.63;;;;;;;19.90;100.00;90886.53;5042391;28;20021;-69
2023/06/15 09:16:55;;;;;;;2.90;2.60;;;;;;;19.84;100.00;90890.66;5042072;28;20128;-66
2023/06/15 09:19:21;;;;;;;2.60;1.88;;;;;;;19.55;100.00;90889.50;5043364;28;20021;-70
2023/06/15 09:21:53;;;;;;;1.73;1.63;;;;;;;19.58;100.00;90877.22;5039054;28;20059;-71
2023/06/15 09:24:23;;;;;;;4.07;3.63;;;;;;;19.80;100.00;90894.47;5042656;28;20024;-71
2023/06/15 09:26:49;;;;;;;1.92;1.67;;;;;;;19.62;100.00;90884.22;5051070;28;20451;-72
2023/06/15 09:29:15;;;;;;;1.95;1.85;;;;;;;19.72;100.00;90888.19;5042621;28;21924;-69
2023/06/15 09:31:41;;;;;;;2.13;1.92;;;;;;;20.19;100.00;90884.16;5046302;28;20502;-67
2023/06/15 09:34:09;;;;;;;2.25;2.05;;;;;;;20.14;100.00;90887.97;5046383;28;20485;-68
2023/06/15 09:36:57;;;;;;;1.33;1.27;;;;;;;20.08;100.00;90884.03;5039518;28;20060;-68
2023/06/15 09:39:45;;;;;;;2.40;2.20;;;;;;;20.80;100.00;90880.19;5072973;28;20448;-68
2023/06/15 09:42:11;;;;;;;2.85;2.35;;;;;;;21.56;100.00;90885.09;5050475;28;20025;-66
2023/06/15 09:44:40;;;;;;;1.42;1.33;;;;;;;21.63;100.00;90880.53;5040423;28;20040;-68
2023/06/15 09:47:15;;;;;;;1.35;1.30;;;;;;;21.72;100.00;90877.47;5041297;28;20487;-69
2023/06/15 09:49:44;;;;;;;3.17;2.08;;;;;;;21.68;100.00;90877.47;5048724;28;20107;-68
2023/06/15 09:52:13;;;;;;;1.73;1.63;;;;;;;21.41;100.00;90881.53;5050855;28;20021;-68
2023/06/15 09:54:39;;;;;;;1.52;1.42;;;;;;;20.82;100.00;90875.19;5040512;28;20479;-68
2023/06/15 09:57:06;;;;;;;2.67;2.47;;;;;;;21.49;100.00;90881.22;5043451;28;20035;-72
2023/06/15 09:59:32;;;;;;;2.72;2.17;;;;;;;21.88;100.00;90883.38;5047618;28;20013;-68
2023/06/15 10:02:00;;;;;;;1.67;1.58;;;;;;;22.34;100.00;90878.19;5044422;28;20479;-73
2023/06/15 10:04:32;;;;;;;2.00;1.90;;;;;;;22.25;100.00;90877.00;5047896;28;20487;-73
2023/06/15 10:07:02;;;;;;;3.30;2.03;;;;;;;22.27;100.00;90880.13;5053853;28;20037;-73
2023/06/15 10:09:44;;;;;;;2.67;2.17;;;;;;;22.35;100.00;90881.69;5055008;28;20835;-73
2023/06/15 10:12:16;;;;;;;3.50;1.95;;;;;;;22.14;100.00;90878.91;5052736;28;20043;-73
2023/06/15 10:14:55;;;;;;;1.48;1.42;;;;;;;21.90;100.00;90885.69;5051897;28;20025;-73
2023/06/15 10:17:30;;;;;;;6.25;2.53;;;;;;;21.48;100.00;90887.78;5053744;28;20517;-74
2023/06/15 10:20:07;;;;;;;1.67;1.55;;;;;;;21.16;100.00;90884.78;5053492;28;20082;-72
2023/06/15 10:22:33;;;;;;;2.83;1.90;;;;;;;20.85;100.00;90874.47;5054033;28;20171;-72
2023/06/15 10:25:00;;;;;;;1.45;1.35;;;;;;;20.70;100.00;90872.78;5054295;28;20032;-72
2023/06/15 10:27:26;;;;;;;2.53;2.28;;;;;;;20.47;100.00;90862.88;5054645;28;20035;-73
2023/06/15 10:30:06;;;;;;;2.67;2.47;;;;;;;20.45;100.00;90873.28;5053948;28;20465;-72
2023/06/15 10:33:09;;;;;;;1.63;1.52;;;;;;;20.74;100.00;90871.66;5052621;28;20071;-72
2023/06/15 10:35:40;;;;;;;2.42;2.22;;;;;;;21.15;100.00;90874.34;5010243;28;20037;-73
2023/06/15 10:38:23;;;;;;;1.33;1.20;;;;;;;21.53;100.00;90868.47;5047523;28;20041;-74
2023/06/15 10:40:50;;;;;;;1.65;1.55;;;;;;;21.74;100.00;90857.00;5052911;28;20490;-73
2023/06/15 10:43:19;;;;;;;2.28;2.13;;;;;;;22.79;100.00;90858.97;5053450;28;20021;-71
2023/06/15 10:45:46;;;;;;;1.55;1.40;;;;;;;22.96;100.00;90856.31;5042877;28;20022;-73
2023/06/15 10:48:21;;;;;;;1.40;1.30;;;;;;;23.24;100.00;90862.94;5053723;28;20021;-70
2023/06/15 10:50:48;;;;;;;3.25;2.50;;;;;;;23.80;100.00;90856.69;5051861;28;20422;-70
2023/06/15 10:53:24;;;;;;;1.00;1.00;;;;;;;24.05;100.00;90847.72;5054624;28;20040;-69
2023/06/15 10:55:58;;;;;;;1.45;1.35;;;;;;;23.07;100.00;90836.56;5054607;28;20505;-68
2023/06/15 10:58:25;;;;;;;2.22;2.05;;;;;;;22.22;100.00;90843.31;5054472;28;20511;-69
2023/06/15 11:01:13;;;;;;;2.28;1.80;;;;;;;22.81;100.00;90846.56;5054476;28;20028;-69
2023/06/15 11:03:43;;;;;;;1.20;1.13;;;;;;;22.73;100.00;90844.25;5054420;28;20055;-69
2023/06/15 11:06:15;;;;;;;1.50;1.25;;;;;;;23.02;100.00;90841.19;5054008;28;20037;-70
2023/06/15 11:08:48;;;;;;;2.72;1.73;;;;;;;23.11;100.00;90845.47;5046503;28;20029;-70
2023/06/15 11:11:15;;;;;;;2.10;1.92;;;;;;;23.02;100.00;90843.13;5051601;28;20037;-70
2023/06/15 11:14:04;;;;;;;3.53;2.33;;;;;;;22.67;100.00;90849.25;5053511;28;20021;-70
2023/06/15 11:16:34;;;;;;;3.03;1.77;;;;;;;21.18;100.00;90850.03;5053163;28;20105;-70
2023/06/15 11:19:11;;;;;;;2.38;2.17;;;;;;;21.02;100.00;90846.03;5051315;28;20522;-71
2023/06/15 11:21:50;;;;;;;3.65;3.00;;;;;;;20.76;100.00;90847.72;5054224;28;20105;-70
2023/06/15 11:24:19;;;;;;;1.90;1.70;;;;;;;21.05;100.00;90850.69;5054202;28;20111;-70